createdAt,value
2017-09-22T00:01:10.221Z,30.77
2017-09-22T00:03:41.200Z,31.60
2017-09-22T00:06:10.339Z,33.43
2017-09-22T00:08:40.281Z,29.30
2017-09-22T00:11:09.448Z,29.63
2017-09-22T00:13:39.805Z,30.30
2017-09-22T00:16:08.941Z,29.33
2017-09-22T00:18:38.275Z,30.30
2017-09-22T00:21:07.402Z,27.53
2017-09-22T00:23:36.862Z,29.73
2017-09-22T00:26:06.359Z,27.77
2017-09-22T00:28:35.535Z,27.20
2017-09-22T00:31:05.462Z,26.13
2017-09-22T00:33:35.131Z,28.30
2017-09-22T00:36:05.175Z,29.07
2017-09-22T00:38:34.436Z,29.40
2017-09-22T00:41:04.293Z,27.60
2017-09-22T00:43:34.149Z,27.33
2017-09-22T00:46:03.368Z,29.03
2017-09-22T00:48:33.690Z,29.13
2017-09-22T00:51:03.783Z,29.07
2017-09-22T00:53:33.967Z,28.67
2017-09-22T00:56:03.317Z,28.70
2017-09-22T00:58:33.924Z,29.00
2017-09-22T01:01:03.200Z,27.50
2017-09-22T01:03:36.020Z,28.23
2017-09-22T01:06:05.253Z,25.97
2017-09-22T01:08:34.557Z,26.97
2017-09-22T01:11:04.835Z,26.37
2017-09-22T01:13:34.022Z,26.80
2017-09-22T01:16:03.250Z,24.50
2017-09-22T01:18:32.826Z,25.40
2017-09-22T01:21:02.020Z,26.60
2017-09-22T01:23:31.225Z,26.50
2017-09-22T01:26:00.545Z,28.70
2017-09-22T01:28:29.741Z,26.77
2017-09-22T01:30:58.890Z,28.60
2017-09-22T01:33:28.048Z,26.20
2017-09-22T01:35:57.226Z,26.93
2017-09-22T01:38:26.404Z,26.50
2017-09-22T01:40:55.837Z,26.73
2017-09-22T01:43:24.940Z,26.60
2017-09-22T01:45:54.064Z,24.03
2017-09-22T01:48:23.361Z,25.00
2017-09-22T01:50:52.478Z,25.57
2017-09-22T01:53:22.396Z,24.40
2017-09-22T01:55:51.579Z,22.83
2017-09-22T01:58:21.843Z,25.30
2017-09-22T02:00:51.008Z,25.00
2017-09-22T02:03:21.026Z,24.80
2017-09-22T02:05:50.110Z,24.20
2017-09-22T02:08:19.257Z,24.50
2017-09-22T02:10:48.403Z,24.53
2017-09-22T02:13:17.530Z,24.93
2017-09-22T02:15:46.649Z,23.40
2017-09-22T02:18:16.871Z,27.57
2017-09-22T02:20:46.017Z,25.87
2017-09-22T02:23:15.153Z,27.33
2017-09-22T02:25:44.312Z,26.10
2017-09-22T02:28:13.405Z,25.97
2017-09-22T02:30:42.507Z,27.50
2017-09-22T02:33:11.883Z,27.07
2017-09-22T02:35:42.161Z,28.40
2017-09-22T02:38:12.325Z,28.23
2017-09-22T02:40:41.459Z,29.17
2017-09-22T02:43:10.565Z,29.23
2017-09-22T02:45:39.894Z,27.73
2017-09-22T02:48:09.014Z,29.57
2017-09-22T02:50:38.262Z,29.10
2017-09-22T02:53:08.594Z,30.17
2017-09-22T02:55:38.071Z,28.60
2017-09-22T02:58:07.344Z,32.10
2017-09-22T03:00:37.974Z,32.57
2017-09-22T03:03:07.865Z,34.17
2017-09-22T03:05:37.783Z,32.60
2017-09-22T03:08:07.418Z,32.43
2017-09-22T03:10:36.558Z,31.93
2017-09-22T03:13:05.739Z,35.07
2017-09-22T03:15:35.124Z,35.80
2017-09-22T03:18:04.259Z,37.40
2017-09-22T03:20:33.430Z,34.33
2017-09-22T03:23:05.073Z,32.80
2017-09-22T03:25:34.215Z,34.53
2017-09-22T03:28:03.351Z,39.53
2017-09-22T03:30:32.553Z,40.67
2017-09-22T03:33:01.728Z,37.40
2017-09-22T03:35:31.697Z,39.93
2017-09-22T03:38:01.128Z,38.17
2017-09-22T03:40:31.085Z,37.37
2017-09-22T03:43:00.267Z,39.77
2017-09-22T03:45:29.747Z,36.87
2017-09-22T03:47:58.892Z,38.93
2017-09-22T03:50:28.804Z,42.33
2017-09-22T03:52:58.164Z,39.73
2017-09-22T03:55:28.052Z,41.83
2017-09-22T03:57:57.186Z,38.60
2017-09-22T04:00:26.486Z,43.30
2017-09-22T04:02:55.594Z,43.47
2017-09-22T04:05:24.697Z,41.40
2017-09-22T04:07:54.772Z,42.40
2017-09-22T04:10:23.883Z,48.23
2017-09-22T04:12:54.030Z,43.47
2017-09-22T04:15:23.348Z,44.20
2017-09-22T04:17:52.480Z,43.03
2017-09-22T04:20:21.592Z,42.17
2017-09-22T04:22:51.098Z,42.43
2017-09-22T04:25:20.216Z,44.07
2017-09-22T04:27:49.373Z,44.60
2017-09-22T04:30:19.463Z,45.17
2017-09-22T04:32:48.551Z,49.90
2017-09-22T04:35:17.694Z,53.40
2017-09-22T04:37:47.160Z,55.17
2017-09-22T04:40:16.286Z,54.67
2017-09-22T04:42:45.401Z,52.90
2017-09-22T04:45:15.366Z,52.13
2017-09-22T04:47:45.229Z,52.47
2017-09-22T04:50:14.410Z,51.60
2017-09-22T04:52:43.755Z,52.80
2017-09-22T04:55:13.645Z,52.40
2017-09-22T04:57:42.790Z,49.40
2017-09-22T05:00:12.343Z,48.90
2017-09-22T05:02:43.178Z,48.10
2017-09-22T05:05:12.789Z,48.63
2017-09-22T05:07:41.933Z,47.30
2017-09-22T05:10:11.806Z,46.63
2017-09-22T05:12:40.901Z,51.43
2017-09-22T05:15:10.510Z,48.70
2017-09-22T05:17:39.645Z,50.47
2017-09-22T05:20:08.797Z,50.47
2017-09-22T05:22:38.063Z,51.23
2017-09-22T05:25:07.217Z,53.40
2017-09-22T05:27:37.120Z,54.53
2017-09-22T05:30:06.506Z,55.20
2017-09-22T05:32:35.658Z,53.17
2017-09-22T05:35:04.864Z,53.43
2017-09-22T05:37:34.159Z,53.90
2017-09-22T05:40:03.390Z,61.33
2017-09-22T05:42:32.584Z,58.53
2017-09-22T05:45:03.036Z,54.07
2017-09-22T05:47:32.226Z,56.27
2017-09-22T05:50:01.404Z,55.80
2017-09-22T05:52:31.743Z,56.13
2017-09-22T05:55:00.928Z,54.37
2017-09-22T05:57:30.151Z,55.50
2017-09-22T05:59:59.528Z,53.67
2017-09-22T06:02:28.634Z,52.40
2017-09-22T06:04:57.774Z,59.57
2017-09-22T06:07:27.209Z,59.77
2017-09-22T06:09:56.384Z,61.07
2017-09-22T06:12:25.510Z,61.83
2017-09-22T06:14:54.985Z,61.60
2017-09-22T06:17:24.090Z,66.23
2017-09-22T06:19:53.188Z,64.17
2017-09-22T06:22:22.704Z,61.13
2017-09-22T06:24:54.028Z,65.23
2017-09-22T06:27:23.473Z,63.80
2017-09-22T06:29:52.575Z,64.83
2017-09-22T06:32:21.775Z,70.77
2017-09-22T06:34:51.162Z,67.17
2017-09-22T06:37:20.324Z,65.60
2017-09-22T06:39:49.450Z,66.37
2017-09-22T06:42:19.542Z,71.10
2017-09-22T06:44:48.767Z,66.40
2017-09-22T06:47:17.982Z,60.80
2017-09-22T06:49:47.549Z,64.30
2017-09-22T06:52:16.723Z,55.80
2017-09-22T06:54:46.122Z,62.67
2017-09-22T06:57:15.678Z,57.53
2017-09-22T06:59:45.586Z,56.10
2017-09-22T07:02:15.529Z,56.37
2017-09-22T07:04:44.753Z,45.57
2017-09-22T07:07:14.054Z,59.70
2017-09-22T07:09:43.186Z,56.70
2017-09-22T07:12:12.606Z,55.17
2017-09-22T07:14:42.485Z,55.63
2017-09-22T07:17:11.647Z,48.97
2017-09-22T07:19:41.062Z,52.70
2017-09-22T07:22:11.033Z,52.83
2017-09-22T07:24:40.238Z,52.80
2017-09-22T07:27:09.714Z,48.97
2017-09-22T07:29:38.970Z,52.83
2017-09-22T07:32:09.349Z,41.73
2017-09-22T07:34:41.002Z,42.27
2017-09-22T07:37:10.170Z,39.97
2017-09-22T07:39:40.095Z,40.40
2017-09-22T07:42:09.386Z,36.50
2017-09-22T07:44:38.605Z,39.27
2017-09-22T07:47:07.832Z,33.53
2017-09-22T07:49:37.519Z,39.87
2017-09-22T07:52:06.709Z,38.60
2017-09-22T07:54:37.077Z,36.40
2017-09-22T07:57:06.425Z,36.03
2017-09-22T07:59:36.751Z,33.07
2017-09-22T08:02:05.963Z,34.57
2017-09-22T08:04:35.281Z,36.10
2017-09-22T08:07:04.624Z,32.10
2017-09-22T08:09:33.815Z,34.30
2017-09-22T08:12:03.077Z,31.13
2017-09-22T08:14:33.244Z,32.03
2017-09-22T08:17:02.480Z,28.80
2017-09-22T08:19:32.411Z,29.47
2017-09-22T08:22:01.685Z,28.43
2017-09-22T08:24:32.022Z,29.77
2017-09-22T08:27:01.543Z,29.50
2017-09-22T08:29:31.551Z,27.13
2017-09-22T08:32:00.779Z,26.30
2017-09-22T08:34:30.758Z,24.63
2017-09-22T08:37:00.191Z,25.23
2017-09-22T08:39:29.381Z,24.90
2017-09-22T08:41:59.915Z,22.20
2017-09-22T08:44:29.210Z,21.10
2017-09-22T08:46:58.381Z,21.37
2017-09-22T08:49:27.832Z,19.60
2017-09-22T08:51:57.718Z,19.17
2017-09-22T08:54:27.654Z,16.60
2017-09-22T08:56:57.159Z,17.13
2017-09-22T08:59:27.059Z,14.73
2017-09-22T09:01:56.304Z,14.10
2017-09-22T09:04:27.412Z,14.80
2017-09-22T09:06:57.388Z,15.57
2017-09-22T09:09:26.540Z,14.90
2017-09-22T09:11:55.810Z,13.80
2017-09-22T09:14:25.078Z,10.47
2017-09-22T09:16:56.355Z,12.77
2017-09-22T09:19:26.079Z,11.30
2017-09-22T09:22:01.735Z,9.80
2017-09-22T09:24:31.196Z,11.13
2017-09-22T09:27:01.190Z,12.20
2017-09-22T09:29:32.134Z,8.77
2017-09-22T09:32:02.222Z,7.80
2017-09-22T09:34:31.427Z,9.77
2017-09-22T09:37:00.666Z,7.20
2017-09-22T09:39:29.815Z,7.30
2017-09-22T09:42:00.026Z,7.60
2017-09-22T09:44:29.947Z,7.63
2017-09-22T09:46:59.097Z,6.77
2017-09-22T09:49:29.333Z,7.60
2017-09-22T09:51:58.455Z,6.47
2017-09-22T09:54:27.590Z,7.20
2017-09-22T09:56:56.909Z,7.80
2017-09-22T09:59:29.937Z,6.87
2017-09-22T10:01:59.996Z,8.57
2017-09-22T10:04:30.779Z,7.87
2017-09-22T10:07:01.125Z,10.07
2017-09-22T10:09:34.344Z,8.80
2017-09-22T10:12:04.625Z,9.10
2017-09-22T10:14:37.848Z,9.20
2017-09-22T10:17:07.377Z,8.77
2017-09-22T10:19:37.195Z,8.23
2017-09-22T10:22:07.104Z,8.70
2017-09-22T10:24:38.107Z,8.30
2017-09-22T10:27:07.355Z,9.43
2017-09-22T10:29:36.542Z,9.73
2017-09-22T10:32:06.735Z,8.70
2017-09-22T10:34:35.943Z,8.63
2017-09-22T10:37:05.197Z,8.23
2017-09-22T10:39:34.495Z,7.40
2017-09-22T10:42:03.699Z,7.43
2017-09-22T10:44:33.715Z,7.40
2017-09-22T10:47:03.957Z,6.13
2017-09-22T10:49:33.176Z,7.27
2017-09-22T10:52:02.353Z,7.40
2017-09-22T10:54:32.002Z,6.50
2017-09-22T10:57:01.641Z,6.33
2017-09-22T10:59:30.765Z,6.53
2017-09-22T11:02:00.356Z,6.10
2017-09-22T11:04:31.340Z,4.83
2017-09-22T11:07:00.584Z,6.67
2017-09-22T11:09:30.002Z,6.43
2017-09-22T11:11:59.130Z,7.13
2017-09-22T11:14:28.281Z,5.70
2017-09-22T11:16:58.342Z,7.10
2017-09-22T11:19:27.487Z,6.50
2017-09-22T11:21:56.606Z,6.77
2017-09-22T11:24:26.055Z,6.17
2017-09-22T11:26:55.141Z,6.47
2017-09-22T11:29:24.243Z,6.70
2017-09-22T11:31:53.013Z,5.27
2017-09-22T11:34:22.152Z,5.60
2017-09-22T11:36:51.260Z,5.77
2017-09-22T11:39:21.447Z,6.07
2017-09-22T11:41:50.542Z,5.33
2017-09-22T11:44:19.656Z,5.83
2017-09-22T11:46:49.038Z,4.80
2017-09-22T11:49:18.139Z,5.03
2017-09-22T11:51:47.259Z,5.97
2017-09-22T11:54:16.534Z,5.50
2017-09-22T11:56:45.631Z,6.13
2017-09-22T11:59:15.412Z,5.93
2017-09-22T12:01:45.534Z,6.30
2017-09-22T12:04:15.326Z,6.50
2017-09-22T12:06:44.474Z,5.90
2017-09-22T12:09:14.943Z,6.83
2017-09-22T12:11:44.043Z,7.57
2017-09-22T12:14:13.188Z,6.37
2017-09-22T12:16:43.089Z,6.10
2017-09-22T12:19:12.202Z,6.40
2017-09-22T12:21:41.296Z,6.87
2017-09-22T12:24:11.299Z,6.20
2017-09-22T12:26:40.458Z,6.00
2017-09-22T12:29:09.607Z,7.73
2017-09-22T12:31:39.174Z,6.20
2017-09-22T12:34:10.089Z,6.23
2017-09-22T12:36:39.312Z,6.47
2017-09-22T12:39:08.812Z,5.67
2017-09-22T12:41:38.726Z,6.00
2017-09-22T12:44:07.925Z,6.17
2017-09-22T12:46:37.532Z,5.70
2017-09-22T12:49:06.756Z,5.37
2017-09-22T12:51:36.797Z,5.00
2017-09-22T12:54:06.034Z,5.57
2017-09-22T12:56:39.019Z,5.30
2017-09-22T12:59:08.596Z,4.40
2017-09-22T13:01:38.536Z,4.27
2017-09-22T13:04:07.857Z,4.57
2017-09-22T13:06:37.295Z,4.60
2017-09-22T13:09:07.474Z,4.90
2017-09-22T13:11:36.775Z,4.60
2017-09-22T13:14:07.197Z,5.43
2017-09-22T13:16:37.455Z,5.30
2017-09-22T13:19:07.754Z,4.90
2017-09-22T13:21:40.460Z,4.80
2017-09-22T13:24:10.348Z,5.20
2017-09-22T13:26:41.671Z,4.37
2017-09-22T13:29:10.847Z,4.70
2017-09-22T13:31:40.075Z,3.63
2017-09-22T13:34:10.905Z,4.03
2017-09-22T13:36:40.113Z,4.17
2017-09-22T13:39:09.305Z,3.60
2017-09-22T13:41:38.727Z,4.37
2017-09-22T13:44:08.095Z,5.37
2017-09-22T13:46:37.392Z,4.30
2017-09-22T13:49:07.002Z,4.57
2017-09-22T13:51:36.963Z,5.07
2017-09-22T13:54:07.287Z,5.10
2017-09-22T13:56:36.685Z,5.17
2017-09-22T13:59:06.105Z,5.80
2017-09-22T14:01:35.784Z,4.40
2017-09-22T14:04:05.380Z,4.50
2017-09-22T14:06:35.629Z,5.43
2017-09-22T14:09:05.211Z,4.77
2017-09-22T14:11:34.449Z,4.20
2017-09-22T14:14:05.335Z,3.37
2017-09-22T14:16:34.839Z,3.77
2017-09-22T14:19:03.980Z,3.33
2017-09-22T14:21:33.255Z,3.57
2017-09-22T14:24:03.733Z,2.63
2017-09-22T14:26:34.356Z,3.10
2017-09-22T14:29:04.699Z,3.10
2017-09-22T14:31:34.817Z,3.20
2017-09-22T14:34:04.012Z,3.93
2017-09-22T14:36:34.381Z,3.73
2017-09-22T14:39:03.885Z,2.60
2017-09-22T14:41:33.091Z,3.33
2017-09-22T14:44:02.362Z,2.90
2017-09-22T14:46:34.182Z,2.97
2017-09-22T14:49:05.766Z,3.50
2017-09-22T14:51:39.247Z,5.30
2017-09-22T14:54:09.159Z,34.13
2017-09-22T14:56:38.315Z,4.60
2017-09-22T14:59:07.869Z,3.60
2017-09-22T15:01:37.055Z,3.60
2017-09-22T15:04:07.009Z,4.37
2017-09-22T15:06:36.547Z,2.90
2017-09-22T15:09:05.742Z,3.10
2017-09-22T15:11:34.951Z,2.43
2017-09-22T15:14:04.555Z,4.13
2017-09-22T15:16:34.666Z,3.47
2017-09-22T15:19:03.863Z,3.93
2017-09-22T15:21:34.193Z,3.43
2017-09-22T15:24:03.380Z,3.10
2017-09-22T15:26:32.550Z,4.57
2017-09-22T15:29:01.850Z,3.97
2017-09-22T15:31:31.939Z,3.70
2017-09-22T15:34:01.085Z,3.33
2017-09-22T15:36:30.413Z,3.70
2017-09-22T15:38:59.613Z,3.67
2017-09-22T15:41:28.734Z,4.40
2017-09-22T15:43:58.249Z,4.30
2017-09-22T15:46:27.508Z,4.93
2017-09-22T15:49:00.548Z,5.70
2017-09-22T15:51:48.157Z,5.60
2017-09-22T15:54:19.959Z,6.10
2017-09-22T15:56:49.254Z,5.30
2017-09-22T15:59:18.947Z,5.97
2017-09-22T16:01:48.045Z,9.30
2017-09-22T16:04:17.980Z,8.40
2017-09-22T16:06:47.139Z,6.20
2017-09-22T16:09:16.232Z,6.40
2017-09-22T16:11:45.559Z,7.87
2017-09-22T16:14:14.684Z,5.50
2017-09-22T16:16:43.798Z,6.43
2017-09-22T16:19:14.103Z,7.20
2017-09-22T16:21:43.202Z,6.10
2017-09-22T16:24:12.352Z,5.63
2017-09-22T16:26:42.367Z,6.17
2017-09-22T16:29:11.591Z,4.20
2017-09-22T16:31:41.577Z,3.60
2017-09-22T16:34:11.089Z,5.00
2017-09-22T16:36:40.359Z,9.47
2017-09-22T16:39:09.608Z,4.43
2017-09-22T16:41:39.012Z,4.47
2017-09-22T16:44:08.214Z,4.77
2017-09-22T16:46:37.550Z,8.20
2017-09-22T16:49:07.105Z,6.20
2017-09-22T16:51:36.431Z,5.67
2017-09-22T16:54:07.179Z,6.70
2017-09-22T16:56:39.121Z,5.83
2017-09-22T16:59:08.478Z,7.40
2017-09-22T17:01:37.612Z,7.90
2017-09-22T17:04:08.570Z,7.03
2017-09-22T17:06:37.838Z,8.70
2017-09-22T17:09:07.768Z,9.67
2017-09-22T17:11:37.845Z,5.70
2017-09-22T17:14:07.317Z,9.43
2017-09-22T17:16:37.492Z,7.00
2017-09-22T17:19:07.975Z,7.10
2017-09-22T17:21:37.273Z,5.67
2017-09-22T17:24:06.504Z,4.63
2017-09-22T17:26:35.717Z,11.77
2017-09-22T17:29:04.867Z,15.30
2017-09-22T17:31:35.113Z,10.67
2017-09-22T17:34:04.424Z,14.43
2017-09-22T17:36:33.719Z,9.30
2017-09-22T17:39:03.094Z,11.20
2017-09-22T17:41:32.610Z,6.77
2017-09-22T17:44:02.080Z,7.57
2017-09-22T17:46:31.648Z,9.73
2017-09-22T17:49:01.377Z,6.73
2017-09-22T17:51:31.597Z,8.67
2017-09-22T17:54:01.136Z,9.63
2017-09-22T17:56:32.290Z,17.97
2017-09-22T17:59:03.387Z,8.83
2017-09-22T18:01:32.827Z,7.30
2017-09-22T18:04:02.513Z,8.90
2017-09-22T18:06:31.765Z,8.10
2017-09-22T18:09:01.159Z,10.23
2017-09-22T18:11:30.848Z,12.40
2017-09-22T18:14:00.086Z,18.60
2017-09-22T18:16:29.266Z,10.27
2017-09-22T18:18:59.762Z,8.67
2017-09-22T18:21:28.985Z,8.30
2017-09-22T18:23:58.142Z,7.87
2017-09-22T18:26:28.075Z,9.63
2017-09-22T18:28:57.198Z,11.30
2017-09-22T18:31:26.298Z,7.47
2017-09-22T18:33:55.542Z,6.47
2017-09-22T18:36:25.001Z,10.10
2017-09-22T18:38:54.106Z,8.07
2017-09-22T18:41:23.543Z,13.93
2017-09-22T18:43:53.518Z,10.10
2017-09-22T18:46:22.680Z,12.33
2017-09-22T18:48:52.043Z,11.93
2017-09-22T18:51:21.238Z,14.00
2017-09-22T18:53:50.443Z,10.50
2017-09-22T18:56:19.876Z,23.27
2017-09-22T18:58:49.805Z,20.33
2017-09-22T19:01:18.936Z,15.27
2017-09-22T19:03:49.223Z,15.87
2017-09-22T19:06:18.348Z,14.10
2017-09-22T19:08:48.239Z,7.10
2017-09-22T19:11:17.714Z,10.17
2017-09-22T19:13:47.587Z,9.40
2017-09-22T19:16:17.904Z,8.00
2017-09-22T19:18:47.518Z,8.03
2017-09-22T19:21:16.634Z,8.70
2017-09-22T19:23:45.729Z,7.33
2017-09-22T19:26:15.560Z,7.00
2017-09-22T19:28:45.811Z,7.20
2017-09-22T19:31:14.975Z,10.20
2017-09-22T19:33:45.075Z,10.97
2017-09-22T19:36:14.969Z,8.73
2017-09-22T19:38:44.140Z,10.53
2017-09-22T19:41:13.544Z,9.87
2017-09-22T19:43:43.486Z,11.83
2017-09-22T19:46:13.245Z,14.03
2017-09-22T19:48:44.045Z,12.60
2017-09-22T19:51:13.179Z,9.87
2017-09-22T19:53:42.268Z,10.40
2017-09-22T19:56:11.768Z,11.40
2017-09-22T19:58:41.023Z,9.70
2017-09-22T20:01:10.164Z,10.50
2017-09-22T20:03:39.664Z,10.27
2017-09-22T20:06:09.601Z,13.73
2017-09-22T20:08:39.166Z,12.53
2017-09-22T20:11:09.077Z,10.90
2017-09-22T20:13:38.568Z,12.33
2017-09-22T20:16:07.719Z,15.23
2017-09-22T20:18:36.887Z,13.00
2017-09-22T20:21:06.397Z,12.87
2017-09-22T20:23:36.422Z,8.83
2017-09-22T20:26:05.638Z,9.30
2017-09-22T20:28:36.207Z,9.67
2017-09-22T20:31:05.338Z,9.30
2017-09-22T20:33:34.566Z,10.97
2017-09-22T20:36:04.169Z,11.53
2017-09-22T20:38:33.340Z,12.57
2017-09-22T20:41:04.333Z,11.07
2017-09-22T20:43:34.939Z,10.30
2017-09-22T20:46:04.153Z,9.53
2017-09-22T20:48:34.133Z,11.80
2017-09-22T20:51:03.685Z,10.60
2017-09-22T20:53:33.167Z,9.80
2017-09-22T20:56:02.492Z,10.80
2017-09-22T20:58:32.014Z,10.90
2017-09-22T21:01:02.066Z,10.53
2017-09-22T21:03:32.719Z,10.77
2017-09-22T21:06:02.485Z,10.07
2017-09-22T21:08:32.635Z,10.40
2017-09-22T21:11:03.230Z,9.80
2017-09-22T21:13:32.504Z,10.33
2017-09-22T21:16:01.779Z,10.10
2017-09-22T21:18:31.393Z,9.73
2017-09-22T21:21:02.735Z,9.73
2017-09-22T21:23:31.977Z,10.17
2017-09-22T21:26:01.654Z,10.17
2017-09-22T21:28:30.840Z,11.83
2017-09-22T21:31:00.449Z,11.20
2017-09-22T21:33:30.259Z,10.80
2017-09-22T21:36:01.078Z,11.90
2017-09-22T21:38:30.814Z,10.00
2017-09-22T21:41:00.479Z,12.90
2017-09-22T21:43:30.099Z,15.53
2017-09-22T21:46:00.856Z,10.97
2017-09-22T21:48:30.917Z,10.80
2017-09-22T21:51:00.934Z,14.87
2017-09-22T21:53:31.950Z,9.90
2017-09-22T21:56:01.245Z,11.77
2017-09-22T21:58:33.279Z,17.30
2017-09-22T22:01:04.162Z,13.77
2017-09-22T22:06:45.512Z,12.50
2017-09-22T22:09:15.392Z,11.67
2017-09-22T22:11:44.565Z,11.33
2017-09-22T22:14:13.898Z,13.67
2017-09-22T22:16:43.135Z,13.80
2017-09-22T22:19:12.318Z,15.13
2017-09-22T22:21:41.843Z,14.10
2017-09-22T22:24:11.013Z,16.57
2017-09-22T22:26:40.374Z,16.87
2017-09-22T22:29:10.439Z,17.53
2017-09-22T22:31:39.607Z,16.73
2017-09-22T22:34:08.788Z,16.40
2017-09-22T22:36:38.498Z,16.37
2017-09-22T22:39:07.724Z,16.30
2017-09-22T22:41:36.975Z,16.07
2017-09-22T22:44:06.493Z,16.93
2017-09-22T22:46:36.510Z,14.87
2017-09-22T22:49:14.038Z,18.00
2017-09-22T22:51:44.862Z,22.07
2017-09-22T22:54:14.375Z,19.00
2017-09-22T22:56:44.298Z,16.40
2017-09-22T22:59:13.482Z,19.27
2017-09-22T23:01:43.475Z,18.07
2017-09-22T23:04:12.684Z,19.50
2017-09-22T23:06:42.744Z,17.80
2017-09-22T23:09:12.847Z,18.50
2017-09-22T23:11:42.788Z,17.97
2017-09-22T23:14:12.140Z,17.83
2017-09-22T23:16:42.211Z,17.70
2017-09-22T23:19:11.397Z,17.90
2017-09-22T23:21:41.455Z,18.57
2017-09-22T23:24:10.827Z,16.53
2017-09-22T23:26:40.048Z,17.43
2017-09-22T23:29:09.253Z,16.83
2017-09-22T23:31:38.547Z,14.63
2017-09-22T23:34:08.985Z,17.30
2017-09-22T23:36:38.150Z,16.27
2017-09-22T23:39:08.232Z,16.80
2017-09-22T23:41:37.391Z,18.70
2017-09-22T23:44:06.549Z,18.90
2017-09-22T23:46:36.169Z,17.93
2017-09-22T23:49:05.471Z,20.53
2017-09-22T23:51:34.680Z,18.50
2017-09-22T23:54:04.713Z,19.30
2017-09-22T23:56:34.931Z,20.33
2017-09-22T23:59:04.214Z,19.20
